Time;durP1;ratioP1;P1;durP2;ratioP2;P2;SDS_P1;SDS_P2;PMS_P1;PMS_P2;Temp;Humidity;BMP_temperature;BMP_pressure;BME280_temperature;BME280_humidity;BME280_pressure;Samples;Min_cycle;Max_cycle;Signal;HPM_P1;HPM_P2
2022/10/03 04:59:03;;;;;;;;;;;;;;;9.29;100.00;94891.78;5091515;27;19930;-61
2022/10/03 05:01:39;;;;;;;;;;;;;;;8.86;100.00;94889.31;5095903;28;19967;-62
2022/10/03 05:04:25;;;;;;;;;;;;;;;8.65;100.00;94877.59;5093088;28;19932;-62
2022/10/03 05:07:03;;;;;;;;;;;;;;;8.42;100.00;94881.63;5097899;28;19928;-62
2022/10/03 05:09:49;;;;;;;;;;;;;;;8.35;100.00;94879.06;5098003;28;19989;-61
2022/10/03 05:12:27;;;;;;;;;;;;;;;8.36;100.00;94885.06;5093743;28;20025;-61
2022/10/03 05:15:09;;;;;;;;;;;;;;;8.39;100.00;94887.19;5095250;28;19928;-61
2022/10/03 05:17:38;;;;;;;;;;;;;;;8.44;100.00;94882.19;5096547;28;19932;-61
2022/10/03 05:20:17;;;;;;;;;;;;;;;8.52;100.00;94888.91;5100095;28;19928;-61
2022/10/03 05:22:49;;;;;;;;;;;;;;;8.55;100.00;94884.09;5098114;28;19931;-61
2022/10/03 05:25:15;;;;;;;;;;;;;;;8.53;100.00;94886.09;5099991;28;19932;-61
2022/10/03 05:27:42;;;;;;;;;;;;;;;8.68;100.00;94887.53;5097051;28;19951;-62
2022/10/03 05:30:17;;;;;;;;;;;;;;;8.64;100.00;94881.19;5099810;28;19932;-62
2022/10/03 05:32:52;;;;;;;;;;;;;;;8.78;100.00;94882.63;5096964;28;19924;-61
2022/10/03 05:35:36;;;;;;;;;;;;;;;8.97;100.00;94881.59;5101396;28;19932;-62
2022/10/03 05:38:14;;;;;;;;;;;;;;;9.12;100.00;94870.03;5095039;28;19971;-62
2022/10/03 05:40:46;;;;;;;;;;;;;;;8.94;100.00;94824.88;5100313;28;19924;-62
2022/10/03 05:43:13;;;;;;;;;;;;;;;9.34;100.00;94865.13;5095985;28;20030;-63
2022/10/03 05:45:45;;;;;;;;;;;;;;;9.45;100.00;94866.16;5101480;28;19927;-62
2022/10/03 05:48:23;;;;;;;;;;;;;;;9.56;100.00;94857.59;5099708;28;19924;-62
2022/10/03 05:50:55;;;;;;;;;;;;;;;9.73;100.00;94858.53;5096731;28;20639;-62
2022/10/03 05:53:34;;;;;;;;;;;;;;;9.59;100.00;94867.53;5097134;28;21353;-63
2022/10/03 05:56:19;;;;;;;;;;;;;;;9.70;100.00;94874.56;5098656;28;19978;-61
2022/10/03 05:59:19;;;;;;;;;;;;;;;9.72;100.00;94888.16;5098835;28;19927;-61
2022/10/03 06:01:58;;;;;;;;;;;;;;;9.88;100.00;94885.91;5078006;28;19985;-61
2022/10/03 06:04:27;;;;;;;;;;;;;;;10.05;100.00;94884.25;5095666;28;19924;-62
2022/10/03 06:07:13;;;;;;;;;;;;;;;10.16;100.00;94884.47;5097480;28;19981;-62
2022/10/03 06:09:43;;;;;;;;;;;;;;;10.36;100.00;94871.91;5090965;28;19936;-62
2022/10/03 06:12:28;;;;;;;;;;;;;;;10.36;100.00;94874.53;5084303;28;20030;-62
2022/10/03 06:15:13;;;;;;;;;;;;;;;10.54;100.00;94883.22;5081043;28;19981;-62
2022/10/03 06:17:43;;;;;;;;;;;;;;;10.99;100.00;94885.16;5085197;28;20469;-61
2022/10/03 06:20:28;;;;;;;;;;;;;;;11.20;100.00;94892.34;5082172;28;20459;-62
2022/10/03 06:23:13;;;;;;;;;;;;;;;11.65;100.00;94894.16;5079310;28;21156;-62
2022/10/03 06:25:46;;;;;;;;;;;;;;;11.74;100.00;94891.16;5081883;28;20227;-62
2022/10/03 06:28:18;;;;;;;;;;;;;;;12.03;100.00;94894.53;5083975;28;19959;-62
2022/10/03 06:31:04;;;;;;;;;;;;;;;12.19;100.00;94900.75;5077755;28;20516;-63
2022/10/03 06:33:54;;;;;;;;;;;;;;;12.25;100.00;94897.19;5081056;28;19985;-62
2022/10/03 06:36:26;;;;;;;;;;;;;;;11.64;100.00;94897.78;5074604;28;19973;-62
2022/10/03 06:39:08;;;;;;;;;;;;;;;11.73;100.00;94906.03;5070759;28;20444;-62
2022/10/03 06:41:37;;;;;;;;;;;;;;;11.99;100.00;94904.66;5080649;28;19932;-63
2022/10/03 06:44:04;;;;;;;;;;;;;;;11.97;100.00;94901.47;5080976;28;19932;-63
2022/10/03 06:46:46;;;;;;;;;;;;;;;11.98;100.00;94902.28;5080248;28;20011;-63
2022/10/03 06:49:13;;;;;;;;;;;;;;;12.11;100.00;94907.19;5080794;28;19931;-63
2022/10/03 06:51:58;;;;;;;;;;;;;;;12.05;100.00;94911.53;5080222;28;19935;-62
2022/10/03 06:54:44;;;;;;;;;;;;;;;11.86;100.00;94916.16;5081154;28;20487;-63
2022/10/03 06:57:17;;;;;;;;;;;;;;;11.83;100.00;94921.06;5078861;28;20742;-63
2022/10/03 07:00:08;;;;;;;;;;;;;;;11.69;100.00;94914.56;5081503;28;19928;-62
2022/10/03 07:02:46;;;;;;;;;;;;;;;11.77;100.00;94916.78;5080700;28;20388;-63
2022/10/03 07:05:28;;;;;;;;;;;;;;;11.72;100.00;94924.53;5080141;28;19928;-62
2022/10/03 07:07:55;;;;;;;;;;;;;;;11.34;100.00;94916.28;5085210;28;19924;-61
2022/10/03 07:10:28;;;;;;;;;;;;;;;11.42;100.00;94920.38;5081756;28;19932;-62
2022/10/03 07:13:09;;;;;;;;;;;;;;;11.32;100.00;94925.38;5079072;28;19981;-62
2022/10/03 07:15:36;;;;;;;;;;;;;;;11.29;100.00;94937.88;5079797;28;19985;-62
2022/10/03 07:18:41;;;;;;;;;;;;;;;11.16;100.00;94942.56;5081356;28;19934;-62
2022/10/03 07:21:27;;;;;;;;;;;;;;;10.94;100.00;94955.41;5080150;28;19932;-62
2022/10/03 07:23:54;;;;;;;;;;;;;;;10.96;100.00;94958.59;5080775;28;19964;-62
2022/10/03 07:26:39;;;;;;;;;;;;;;;10.77;100.00;94966.56;5077992;28;20603;-62
2022/10/03 07:29:16;;;;;;;;;;;;;;;10.69;100.00;94979.91;5077989;28;19932;-62
2022/10/03 07:31:53;;;;;;;;;;;;;;;10.69;100.00;94974.69;5090165;28;20034;-62
2022/10/03 07:34:46;;;;;;;;;;;;;;;10.66;100.00;94972.53;5078870;28;19997;-62
2022/10/03 07:40:29;;;;;;;;;;;;;;;10.68;100.00;94958.28;5078091;28;19931;-62
2022/10/03 07:43:07;;;;;;;;;;;;;;;10.65;100.00;94963.16;5086801;28;19927;-62
2022/10/03 07:45:53;;;;;;;;;;;;;;;10.65;100.00;94957.94;5081881;28;19935;-62
2022/10/03 07:48:46;;;;;;;;;;;;;;;10.58;100.00;94960.66;5080413;28;19928;-62
2022/10/03 07:51:16;;;;;;;;;;;;;;;10.68;100.00;94967.91;5068912;28;20497;-62
2022/10/03 07:53:42;;;;;;;;;;;;;;;10.62;100.00;94964.38;5082691;28;19928;-62
2022/10/03 07:56:24;;;;;;;;;;;;;;;10.64;100.00;94966.75;5081383;28;19931;-61
2022/10/03 07:59:03;;;;;;;;;;;;;;;10.62;100.00;94958.41;5079910;28;21231;-63
2022/10/03 08:01:29;;;;;;;;;;;;;;;10.64;100.00;94966.75;5079931;28;19935;-63
2022/10/03 08:04:11;;;;;;;;;;;;;;;10.71;100.00;94973.47;5084866;28;19923;-63
2022/10/03 08:06:42;;;;;;;;;;;;;;;10.68;100.00;94968.69;5081425;28;19924;-62
2022/10/03 08:09:12;;;;;;;;;;;;;;;10.66;100.00;94975.13;5087367;28;19971;-63
2022/10/03 08:11:50;;;;;;;;;;;;;;;10.61;100.00;94977.66;5083238;28;19924;-63
2022/10/03 08:14:23;;;;;;;;;;;;;;;10.69;100.00;94972.09;5081998;28;19924;-63
2022/10/03 08:17:05;;;;;;;;;;;;;;;10.66;100.00;94986.38;5079543;28;20017;-63
2022/10/03 08:19:34;;;;;;;;;;;;;;;10.65;100.00;94984.00;5077635;28;20404;-61
2022/10/03 08:22:04;;;;;;;;;;;;;;;10.68;100.00;94988.75;5089446;28;19986;-63
2022/10/03 08:24:49;;;;;;;;;;;;;;;10.57;100.00;94987.75;5082730;28;20627;-62
2022/10/03 08:27:15;;;;;;;;;;;;;;;10.57;100.00;94997.34;5086677;28;20858;-62
2022/10/03 08:29:51;;;;;;;;;;;;;;;10.57;100.00;94994.75;5085109;28;19935;-63
2022/10/03 08:32:17;;;;;;;;;;;;;;;10.75;100.00;94997.25;5082765;28;19935;-63
2022/10/03 08:35:06;;;;;;;;;;;;;;;10.57;100.00;94998.16;5085652;28;19928;-62
2022/10/03 08:37:52;;;;;;;;;;;;;;;10.93;100.00;95000.72;5085965;28;19924;-60
2022/10/03 08:40:37;;;;;;;;;;;;;;;11.32;100.00;94998.41;5082830;28;20018;-61
2022/10/03 08:43:28;;;;;;;;;;;;;;;11.38;100.00;95002.69;5085795;28;19924;-63
2022/10/03 08:45:55;;;;;;;;;;;;;;;11.70;100.00;94999.63;5079480;28;19924;-61
2022/10/03 08:48:40;;;;;;;;;;;;;;;11.44;100.00;95009.59;5080990;28;20015;-61
2022/10/03 08:51:10;;;;;;;;;;;;;;;11.43;100.00;95008.00;5078406;28;19932;-62
2022/10/03 08:53:53;;;;;;;;;;;;;;;11.52;100.00;95008.44;5088365;28;20057;-62
2022/10/03 08:56:23;;;;;;;;;;;;;;;11.46;100.00;95000.50;5079052;28;20334;-62
2022/10/03 08:58:49;;;;;;;;;;;;;;;11.48;100.00;95002.88;5077530;28;20589;-62
2022/10/03 09:01:25;;;;;;;;;;;;;;;11.61;100.00;95001.81;5085266;28;19928;-62
2022/10/03 09:03:58;;;;;;;;;;;;;;;11.59;100.00;95004.66;5085285;28;20551;-63
2022/10/03 09:06:43;;;;;;;;;;;;;;;11.77;100.00;95000.28;5079255;28;20375;-63
2022/10/03 09:09:57;;;;;;;;;;;;;;;12.00;100.00;95005.41;5087202;28;20007;-62
2022/10/03 09:12:42;;;;;;;;;;;;;;;11.97;100.00;94999.88;5082642;28;19962;-62
2022/10/03 09:15:17;;;;;;;;;;;;;;;11.97;100.00;95000.66;5083389;28;19989;-62
2022/10/03 09:17:48;;;;;;;;;;;;;;;12.09;100.00;95002.44;5079477;28;19925;-62
2022/10/03 09:20:15;;;;;;;;;;;;;;;12.31;100.00;95005.91;5081642;28;19935;-62
2022/10/03 09:23:11;;;;;;;;;;;;;;;12.43;100.00;95008.47;5078998;28;19928;-63
2022/10/03 09:34:38;;;;;;;;;;;;;;;12.73;100.00;94987.22;5064389;27;19951;-74
2022/10/03 09:37:24;;;;;;;;;;;;;;;12.89;100.00;94988.22;5062971;28;20024;-69
2022/10/03 09:40:06;;;;;;;;;;;;;;;12.94;100.00;94987.50;5060885;28;20728;-68
2022/10/03 09:42:51;;;;;;;;;;;;;;;12.92;100.00;94992.19;5056724;28;19928;-68
2022/10/03 09:45:34;;;;;;;;;;;;;;;13.17;100.00;94989.09;5060191;28;19958;-68
2022/10/03 09:48:22;;;;;;;;;;;;;;;13.25;100.00;94993.09;5072738;28;20575;-68
2022/10/03 09:51:08;;;;;;;;;;;;;;;13.14;100.00;94998.25;5056243;28;20027;-68
2022/10/03 09:53:53;;;;;;;;;;;;;;;13.09;100.00;94982.47;5070630;28;19925;-68
2022/10/03 09:56:20;;;;;;;;;;;;;;;13.14;100.00;94986.97;5069309;28;19935;-67
2022/10/03 09:59:10;;;;;;;;;;;;;;;13.17;100.00;94992.50;5073487;28;19939;-68
2022/10/03 10:01:56;;;;;;;;;;;;;;;13.13;100.00;94991.41;5069528;28;19929;-68
2022/10/03 10:04:39;;;;;;;;;;;;;;;13.22;100.00;94977.91;5108362;28;19964;-67
2022/10/03 10:07:37;;;;;;;;;;;;;;;13.42;100.00;94978.19;5069171;28;20007;-67
2022/10/03 10:10:11;;;;;;;;;;;;;;;13.61;100.00;94970.00;5069499;28;19928;-68
2022/10/03 10:12:57;;;;;;;;;;;;;;;13.70;100.00;94976.38;5061715;28;20240;-67
2022/10/03 10:15:50;;;;;;;;;;;;;;;13.82;100.00;94971.78;5064251;28;19942;-67
2022/10/03 10:18:26;;;;;;;;;;;;;;;13.76;100.00;94975.41;5055717;28;20061;-67
2022/10/03 10:21:10;;;;;;;;;;;;;;;13.71;100.00;94981.38;5060977;28;19929;-68
2022/10/03 10:23:37;;;;;;;;;;;;;;;13.77;100.00;94974.34;5055254;28;19936;-73
2022/10/03 10:26:23;;;;;;;;;;;;;;;13.69;100.00;94972.19;5063604;28;19929;-73
2022/10/03 10:29:13;;;;;;;;;;;;;;;13.75;100.00;94971.19;5061177;28;19951;-73
2022/10/03 10:31:39;;;;;;;;;;;;;;;13.90;100.00;94971.34;5065492;28;19935;-73
2022/10/03 10:34:12;;;;;;;;;;;;;;;13.86;100.00;94978.09;5095969;28;19935;-73
2022/10/03 10:36:57;;;;;;;;;;;;;;;13.80;100.00;94976.47;5060649;28;19932;-72
2022/10/03 10:39:42;;;;;;;;;;;;;;;13.75;100.00;94976.44;5058463;28;19970;-73
2022/10/03 10:42:15;;;;;;;;;;;;;;;13.79;100.00;94987.97;5060444;28;20045;-73
2022/10/03 10:45:02;;;;;;;;;;;;;;;13.84;100.00;94985.41;5056534;28;19933;-72
2022/10/03 10:47:47;;;;;;;;;;;;;;;13.89;100.00;94985.47;5047176;28;19925;-73
2022/10/03 10:50:23;;;;;;;;;;;;;;;13.89;100.00;94975.00;5057123;28;20390;-72
2022/10/03 10:53:08;;;;;;;;;;;;;;;13.96;100.00;94983.44;5049641;28;20011;-73
2022/10/03 10:55:38;;;;;;;;;;;;;;;14.19;100.00;95002.50;5046997;28;19928;-72
2022/10/03 10:58:39;;;;;;;;;;;;;;;14.25;100.00;94985.78;5055224;28;20634;-72
2022/10/03 11:01:25;;;;;;;;;;;;;;;14.65;100.00;94974.03;5051658;28;20763;-72
2022/10/03 11:04:11;;;;;;;;;;;;;;;14.72;100.00;94974.59;5053790;28;19952;-73
2022/10/03 11:06:43;;;;;;;;;;;;;;;15.37;100.00;94969.16;5075402;28;19935;-71
2022/10/03 11:09:23;;;;;;;;;;;;;;;15.35;100.00;94954.72;5051128;28;19931;-71
2022/10/03 11:12:07;;;;;;;;;;;;;;;15.70;100.00;94982.91;5053276;28;20021;-71
2022/10/03 11:14:53;;;;;;;;;;;;;;;16.01;100.00;94967.25;5051780;28;19933;-71
2022/10/03 11:17:38;;;;;;;;;;;;;;;15.99;100.00;94974.56;5048602;28;20415;-67
2022/10/03 11:20:23;;;;;;;;;;;;;;;16.60;100.00;94958.81;5040786;28;20583;-68
2022/10/03 11:23:08;;;;;;;;;;;;;;;16.37;100.00;94972.50;5049139;28;19931;-68
2022/10/03 11:25:36;;;;;;;;;;;;;;;16.00;100.00;94986.66;5042905;28;19998;-69
2022/10/03 11:28:21;;;;;;;;;;;;;;;16.05;100.00;94963.03;5042709;28;19936;-69
2022/10/03 11:31:11;;;;;;;;;;;;;;;15.80;100.00;94972.44;5048836;28;19929;-72
2022/10/03 11:33:49;;;;;;;;;;;;;;;15.94;100.00;94954.34;5043147;28;19928;-72
2022/10/03 11:36:51;;;;;;;;;;;;;;;15.98;100.00;94967.75;5045611;28;19932;-73
2022/10/03 11:39:18;;;;;;;;;;;;;;;16.11;100.00;94961.97;4997571;28;19940;-72
2022/10/03 11:41:57;;;;;;;;;;;;;;;16.10;100.00;94957.78;5040415;28;19972;-72
2022/10/03 11:44:27;;;;;;;;;;;;;;;15.57;100.00;94959.75;5039527;28;20025;-72
2022/10/03 11:47:12;;;;;;;;;;;;;;;15.62;100.00;94955.31;5050299;28;19929;-74
2022/10/03 11:49:45;;;;;;;;;;;;;;;16.27;100.00;94959.38;5039863;28;19936;-75
2022/10/03 11:52:11;;;;;;;;;;;;;;;16.37;100.00;94975.13;5047129;28;19932;-72
2022/10/03 11:54:43;;;;;;;;;;;;;;;16.55;100.00;94953.56;5040223;28;20067;-73
2022/10/03 11:57:19;;;;;;;;;;;;;;;16.54;100.00;94938.81;5048344;28;19925;-75
2022/10/03 11:59:46;;;;;;;;;;;;;;;16.49;100.00;94954.59;5038772;28;19932;-69
2022/10/03 12:02:16;;;;;;;;;;;;;;;16.46;100.00;94973.56;5044039;28;20019;-70
2022/10/03 12:05:02;;;;;;;;;;;;;;;16.50;100.00;94950.94;5040466;28;19967;-71
2022/10/03 12:10:23;;;;;;;;;;;;;;;17.31;100.00;94940.50;5039551;28;19994;-72
2022/10/03 12:12:53;;;;;;;;;;;;;;;17.25;100.00;94945.00;5044699;28;19928;-73
2022/10/03 12:15:19;;;;;;;;;;;;;;;18.07;100.00;94957.72;5039467;28;20063;-69
2022/10/03 12:17:54;;;;;;;;;;;;;;;17.51;100.00;94945.63;5043221;28;20445;-69
2022/10/03 12:20:28;;;;;;;;;;;;;;;17.18;100.00;94952.38;5040705;28;20024;-72
2022/10/03 12:22:57;;;;;;;;;;;;;;;16.22;100.00;94947.81;5046668;28;20550;-73
2022/10/03 12:25:29;;;;;;;;;;;;;;;15.99;100.00;94958.81;5046683;28;19924;-72
2022/10/03 12:27:59;;;;;;;;;;;;;;;16.59;100.00;94953.81;5047578;28;19928;-72
2022/10/03 12:30:30;;;;;;;;;;;;;;;16.87;91.33;94947.22;5052517;28;19925;-72
2022/10/03 12:33:00;;;;;;;;;;;;;;;16.58;87.68;94947.78;5050227;28;20022;-73
2022/10/03 12:35:39;;;;;;;;;;;;;;;16.93;87.62;94946.16;5051752;28;19928;-72
2022/10/03 12:38:06;;;;;;;;;;;;;;;17.02;88.40;94948.25;5049076;28;19967;-73
2022/10/03 12:40:42;;;;;;;;;;;;;;;17.67;84.08;94948.97;5053988;28;19925;-72
2022/10/03 12:43:23;;;;;;;;;;;;;;;17.19;84.68;94948.69;5089780;28;19920;-74
2022/10/03 12:46:00;;;;;;;;;;;;;;;17.81;84.98;94933.38;5072344;28;19940;-76
2022/10/03 12:48:38;;;;;;;;;;;;;;;17.74;82.15;94943.41;5065009;28;19924;-74
2022/10/03 12:51:19;;;;;;;;;;;;;;;17.52;83.10;94935.88;5069369;28;19929;-76
2022/10/03 12:54:03;;;;;;;;;;;;;;;18.14;79.02;94942.38;5066577;28;19925;-76
2022/10/03 12:56:50;;;;;;;;;;;;;;;17.65;79.68;94932.66;5064857;28;19951;-75
2022/10/03 12:59:23;;;;;;;;;;;;;;;18.18;78.89;94936.56;5046174;28;20015;-76
2022/10/03 13:02:08;;;;;;;;;;;;;;;18.26;75.92;94934.13;5048781;28;20471;-76
2022/10/03 13:04:40;;;;;;;;;;;;;;;17.87;76.23;94940.19;5080827;28;19925;-77
2022/10/03 13:07:23;;;;;;;;;;;;;;;17.48;78.82;94924.34;5040795;28;20452;-77
2022/10/03 13:10:00;;;;;;;;;;;;;;;17.51;78.16;94944.88;5043770;28;19981;-78
2022/10/03 13:12:52;;;;;;;;;;;;;;;17.35;77.27;94952.81;5088131;28;19940;-78
2022/10/03 13:15:31;;;;;;;;;;;;;;;17.12;78.76;94969.22;5060617;28;19955;-76
2022/10/03 13:18:18;;;;;;;;;;;;;;;16.51;81.84;94955.16;5061618;28;19980;-77
2022/10/03 13:20:52;;;;;;;;;;;;;;;16.81;80.27;94953.50;5048634;28;19959;-72
2022/10/03 13:23:19;;;;;;;;;;;;;;;17.38;79.16;94949.66;5050893;28;19933;-72
2022/10/03 13:26:03;;;;;;;;;;;;;;;16.86;81.93;94940.38;5045825;28;19932;-72
2022/10/03 13:28:48;;;;;;;;;;;;;;;16.05;84.92;94947.28;5047224;28;19936;-71
2022/10/03 13:31:22;;;;;;;;;;;;;;;15.71;87.56;94952.19;5047602;28;19946;-71
2022/10/03 13:33:51;;;;;;;;;;;;;;;15.43;87.12;94957.63;5048080;28;20703;-72
2022/10/03 13:36:24;;;;;;;;;;;;;;;15.46;86.38;94928.22;5051119;28;19932;-71
2022/10/03 13:39:09;;;;;;;;;;;;;;;15.77;85.57;94956.41;5048510;28;19933;-71
2022/10/03 13:41:45;;;;;;;;;;;;;;;16.90;81.60;94945.88;5041066;28;20396;-72
2022/10/03 13:44:14;;;;;;;;;;;;;;;17.50;78.14;94953.81;5045659;28;20600;-70
2022/10/03 13:46:43;;;;;;;;;;;;;;;17.59;76.22;94962.72;5043450;28;20601;-70
2022/10/03 13:49:19;;;;;;;;;;;;;;;18.05;74.14;94944.03;5053722;28;20031;-71
2022/10/03 13:51:46;;;;;;;;;;;;;;;18.01;74.21;94948.28;5045394;28;19932;-71
2022/10/03 13:54:20;;;;;;;;;;;;;;;18.24;69.33;94972.34;5048576;28;19920;-71
2022/10/03 13:56:46;;;;;;;;;;;;;;;18.13;68.29;94955.81;5046706;28;19924;-71
2022/10/03 13:59:16;;;;;;;;;;;;;;;17.59;69.09;94941.63;5052916;28;19936;-71
2022/10/03 14:01:49;;;;;;;;;;;;;;;16.79;72.15;94955.63;5042372;28;19974;-71
2022/10/03 14:04:37;;;;;;;;;;;;;;;17.40;66.63;94954.66;5079869;28;19947;-72
2022/10/03 14:07:23;;;;;;;;;;;;;;;17.59;65.52;94941.63;5076752;28;19925;-78
2022/10/03 14:10:09;;;;;;;;;;;;;;;18.01;65.29;94948.28;5054229;28;19939;-69
2022/10/03 14:12:39;;;;;;;;;;;;;;;18.87;63.51;94974.19;5075324;28;20460;-73
2022/10/03 14:15:28;;;;;;;;;;;;;;;18.00;63.32;94948.53;5050015;28;21439;-73
2022/10/03 14:18:13;;;;;;;;;;;;;;;17.51;63.81;94944.88;5049516;28;19940;-71
2022/10/03 14:20:52;;;;;;;;;;;;;;;18.08;64.54;94954.03;5054834;28;19933;-71
2022/10/03 14:23:28;;;;;;;;;;;;;;;17.78;62.39;94966.28;5042937;28;19925;-71
2022/10/03 14:25:59;;;;;;;;;;;;;;;17.93;61.85;94935.66;5055366;28;19968;-71
2022/10/03 14:28:44;;;;;;;;;;;;;;;18.10;61.94;94965.06;5059406;28;19935;-74
2022/10/03 14:31:30;;;;;;;;;;;;;;;17.78;62.60;94970.78;5093468;28;19960;-70
2022/10/03 14:34:15;;;;;;;;;;;;;;;17.07;64.40;94956.91;5053442;28;19938;-71
2022/10/03 14:36:47;;;;;;;;;;;;;;;17.43;62.32;94975.19;5057769;28;20439;-71
2022/10/03 14:39:31;;;;;;;;;;;;;;;17.73;62.78;94963.69;5060329;28;19932;-75
2022/10/03 14:42:13;;;;;;;;;;;;;;;17.42;63.56;94983.34;5055697;28;20412;-71
2022/10/03 14:44:43;;;;;;;;;;;;;;;16.90;65.95;94972.97;5053715;28;19931;-70
2022/10/03 14:47:11;;;;;;;;;;;;;;;17.19;65.45;94962.63;5051484;28;20028;-70
2022/10/03 14:49:39;;;;;;;;;;;;;;;16.78;66.44;94964.56;5050083;28;19932;-69
2022/10/03 14:52:28;;;;;;;;;;;;;;;16.86;65.93;94971.16;5051227;28;19935;-69
2022/10/03 14:54:56;;;;;;;;;;;;;;;16.90;66.83;94965.09;5053449;28;19933;-69
2022/10/03 14:57:23;;;;;;;;;;;;;;;16.77;67.46;94994.56;5054086;28;19928;-72
2022/10/03 14:59:56;;;;;;;;;;;;;;;16.83;67.58;94969.84;5053892;28;19943;-72
2022/10/03 15:02:32;;;;;;;;;;;;;;;16.41;68.48;94978.81;5061026;28;20055;-72
2022/10/03 15:05:07;;;;;;;;;;;;;;;15.79;70.59;94981.38;5057034;28;19924;-72
2022/10/03 15:07:36;;;;;;;;;;;;;;;14.60;76.81;94981.88;5059830;28;20310;-72
2022/10/03 15:10:06;;;;;;;;;;;;;;;14.07;80.30;94978.31;5060466;28;20413;-71
2022/10/03 15:12:36;;;;;;;;;;;;;;;13.80;81.71;94979.09;5058234;28;19935;-71
2022/10/03 15:15:06;;;;;;;;;;;;;;;13.57;81.20;94975.72;5058459;28;19932;-71
2022/10/03 15:17:34;;;;;;;;;;;;;;;13.39;80.66;94982.06;5054764;28;20357;-72
2022/10/03 15:20:03;;;;;;;;;;;;;;;13.25;80.97;94977.41;5053163;28;19932;-72
2022/10/03 15:22:39;;;;;;;;;;;;;;;13.65;79.55;94977.13;5045192;28;21418;-71
2022/10/03 15:25:10;;;;;;;;;;;;;;;14.78;74.48;94972.81;5047476;28;19936;-71
2022/10/03 15:27:39;;;;;;;;;;;;;;;14.48;76.97;94973.38;5081650;28;20548;-72
2022/10/03 15:30:06;;;;;;;;;;;;;;;15.21;73.90;94980.63;5046082;28;19925;-71
2022/10/03 15:32:36;;;;;;;;;;;;;;;15.63;71.76;94988.41;5042542;28;20020;-71
2022/10/03 15:35:03;;;;;;;;;;;;;;;15.41;72.95;94985.16;5057929;28;20586;-71
2022/10/03 15:37:37;;;;;;;;;;;;;;;14.19;78.20;94992.03;5057112;28;20439;-71
2022/10/03 15:40:19;;;;;;;;;;;;;;;13.67;82.46;94995.97;5050006;28;19928;-72
2022/10/03 15:42:49;;;;;;;;;;;;;;;13.14;86.97;94990.41;5048937;28;19935;-71
2022/10/03 15:45:18;;;;;;;;;;;;;;;12.86;91.39;94995.78;5059137;28;19978;-71
2022/10/03 15:47:46;;;;;;;;;;;;;;;12.65;93.93;94990.25;5060051;28;20004;-72
2022/10/03 15:50:18;;;;;;;;;;;;;;;12.54;96.71;94996.34;5060972;28;19982;-71
2022/10/03 15:52:52;;;;;;;;;;;;;;;12.40;99.96;95004.50;5060132;28;19925;-71
2022/10/03 15:55:29;;;;;;;;;;;;;;;12.27;100.00;95020.47;5057505;28;20002;-71
2022/10/03 15:58:19;;;;;;;;;;;;;;;12.12;100.00;95012.38;5056522;28;19932;-71
2022/10/03 16:00:51;;;;;;;;;;;;;;;12.07;100.00;95020.16;5044346;28;19931;-72
2022/10/03 16:03:25;;;;;;;;;;;;;;;11.97;100.00;95026.75;5057761;28;20019;-72
2022/10/03 16:06:02;;;;;;;;;;;;;;;11.88;100.00;95024.75;5049883;28;19974;-72
2022/10/03 16:08:31;;;;;;;;;;;;;;;11.81;100.00;95032.72;5047521;28;20479;-72
2022/10/03 16:10:57;;;;;;;;;;;;;;;11.70;100.00;95030.94;5050331;28;20634;-72
2022/10/03 16:13:50;;;;;;;;;;;;;;;11.60;100.00;95037.56;5047732;28;20312;-71
2022/10/03 16:16:27;;;;;;;;;;;;;;;11.56;100.00;95041.66;5047707;28;19925;-72
2022/10/03 16:19:00;;;;;;;;;;;;;;;11.52;100.00;95040.50;5051480;28;19956;-72
2022/10/03 16:21:39;;;;;;;;;;;;;;;11.47;100.00;95038.63;5050335;28;20103;-71
2022/10/03 16:24:15;;;;;;;;;;;;;;;11.44;100.00;95040.88;5039478;28;19925;-71
2022/10/03 16:26:54;;;;;;;;;;;;;;;11.40;100.00;95047.59;5048620;28;19933;-71
2022/10/03 16:29:26;;;;;;;;;;;;;;;11.41;100.00;95057.00;5045459;28;19924;-71
2022/10/03 16:31:57;;;;;;;;;;;;;;;11.42;100.00;95045.56;5045277;28;19925;-70
2022/10/03 16:34:26;;;;;;;;;;;;;;;11.48;100.00;95049.84;5050480;28;20383;-70
2022/10/03 16:36:53;;;;;;;;;;;;;;;11.45;100.00;95045.88;5052165;28;19924;-69
2022/10/03 16:39:23;;;;;;;;;;;;;;;11.50;100.00;95058.22;5051323;28;19936;-70
2022/10/03 16:41:54;;;;;;;;;;;;;;;11.51;100.00;95070.25;5078088;28;19929;-70
2022/10/03 16:44:20;;;;;;;;;;;;;;;11.54;100.00;95061.97;5046355;28;20467;-71
2022/10/03 16:46:48;;;;;;;;;;;;;;;11.55;100.00;95063.53;5044705;28;19928;-70
2022/10/03 16:52:11;;;;;;;;;;;;;;;11.60;100.00;95063.63;5043686;28;20021;-70
2022/10/03 16:54:42;;;;;;;;;;;;;;;11.60;100.00;95074.06;5042716;28;19933;-71
2022/10/03 16:57:14;;;;;;;;;;;;;;;11.58;100.00;95070.91;5036986;28;20041;-69
2022/10/03 16:59:45;;;;;;;;;;;;;;;11.58;100.00;95072.72;5041006;28;20355;-69
2022/10/03 17:02:14;;;;;;;;;;;;;;;11.62;100.00;95066.81;5043016;28;20702;-72
2022/10/03 17:04:46;;;;;;;;;;;;;;;11.59;100.00;95062.03;5044976;28;20349;-70
2022/10/03 17:07:16;;;;;;;;;;;;;;;11.58;100.00;95060.47;5042675;28;19960;-69
2022/10/03 17:09:45;;;;;;;;;;;;;;;11.55;100.00;95063.53;5042535;28;20409;-69
2022/10/03 17:12:16;;;;;;;;;;;;;;;11.48;100.00;95068.09;5044360;28;19932;-70
2022/10/03 17:14:47;;;;;;;;;;;;;;;11.44;100.00;95069.56;5041062;28;19940;-78
2022/10/03 17:17:20;;;;;;;;;;;;;;;11.39;100.00;95066.88;5053080;28;19932;-70
2022/10/03 17:20:13;;;;;;;;;;;;;;;11.27;100.00;95065.06;5050481;28;19932;-72
2022/10/03 17:22:46;;;;;;;;;;;;;;;11.23;100.00;95069.13;5053409;28;19928;-70
2022/10/03 17:25:16;;;;;;;;;;;;;;;11.15;100.00;95081.75;5047361;28;20070;-70
2022/10/03 17:27:47;;;;;;;;;;;;;;;11.15;100.00;95079.16;5054476;28;19929;-70
2022/10/03 17:30:32;;;;;;;;;;;;;;;11.16;100.00;95072.91;5055644;28;20041;-77
2022/10/03 17:33:07;;;;;;;;;;;;;;;11.17;100.00;95074.50;5052327;28;19946;-77
2022/10/03 17:35:41;;;;;;;;;;;;;;;11.12;100.00;95077.78;5081170;28;19935;-72
2022/10/03 17:38:14;;;;;;;;;;;;;;;11.05;100.00;95082.31;5053505;28;20015;-72
2022/10/03 17:41:17;;;;;;;;;;;;;;;10.88;100.00;95085.59;5045986;28;20015;-72
2022/10/03 17:44:04;;;;;;;;;;;;;;;10.87;100.00;95084.00;5053125;28;19924;-72
2022/10/03 17:46:39;;;;;;;;;;;;;;;10.79;100.00;95081.75;5048937;28;19925;-72
2022/10/03 17:49:05;;;;;;;;;;;;;;;10.76;100.00;95090.00;5050125;28;19955;-72
2022/10/03 17:51:37;;;;;;;;;;;;;;;10.77;100.00;95089.00;5047273;28;20027;-72
2022/10/03 17:54:09;;;;;;;;;;;;;;;10.74;100.00;95096.47;5045297;28;19929;-72
2022/10/03 17:56:41;;;;;;;;;;;;;;;10.74;100.00;95097.25;5053280;28;20085;-72
2022/10/03 17:59:13;;;;;;;;;;;;;;;10.65;100.00;95090.78;5056744;28;19932;-72
2022/10/03 18:01:43;;;;;;;;;;;;;;;10.56;100.00;95094.75;5047978;28;21374;-72
2022/10/03 18:04:15;;;;;;;;;;;;;;;10.45;100.00;95094.47;5053600;28;19925;-72
2022/10/03 18:06:44;;;;;;;;;;;;;;;10.39;100.00;95095.38;5049372;28;19971;-72
2022/10/03 18:09:14;;;;;;;;;;;;;;;10.37;100.00;95097.41;5049417;28;20447;-72
2022/10/03 18:11:42;;;;;;;;;;;;;;;10.33;100.00;95096.25;5052379;28;19932;-72
2022/10/03 18:14:12;;;;;;;;;;;;;;;10.29;100.00;95095.09;5054007;28;19963;-69
2022/10/03 18:16:53;;;;;;;;;;;;;;;10.27;100.00;95097.13;5043862;28;19968;-71
2022/10/03 18:19:20;;;;;;;;;;;;;;;10.33;100.00;95101.47;5050924;28;19955;-73
2022/10/03 18:22:14;;;;;;;;;;;;;;;10.27;100.00;95108.31;5080967;28;19933;-70
2022/10/03 18:24:53;;;;;;;;;;;;;;;10.25;100.00;95112.19;5034059;28;20586;-70
2022/10/03 18:27:26;;;;;;;;;;;;;;;10.17;100.00;95109.88;5043049;28;19925;-70
2022/10/03 18:29:58;;;;;;;;;;;;;;;10.17;100.00;95121.06;5041636;28;19967;-70
2022/10/03 18:32:31;;;;;;;;;;;;;;;10.11;100.00;95124.56;5047031;28;19998;-69
2022/10/03 18:35:08;;;;;;;;;;;;;;;10.06;100.00;95132.25;5045149;28;20811;-70
2022/10/03 18:37:43;;;;;;;;;;;;;;;10.04;100.00;95132.44;5049328;28;19927;-69
2022/10/03 18:40:16;;;;;;;;;;;;;;;10.02;100.00;95133.69;5043745;28;19931;-69
2022/10/03 18:42:49;;;;;;;;;;;;;;;9.98;100.00;95130.75;5046316;28;19979;-69
2022/10/03 18:45:41;;;;;;;;;;;;;;;9.96;100.00;95132.78;5051434;28;20001;-70